createdAt,value
2023-02-11T00:00:40.808Z,717.70
2023-02-11T00:03:07.669Z,728.47
2023-02-11T00:05:34.671Z,724.65
2023-02-11T00:08:01.592Z,726.47
2023-02-11T00:10:28.203Z,718.08
2023-02-11T00:12:54.736Z,721.83
2023-02-11T00:15:21.509Z,724.13
2023-02-11T00:17:48.094Z,720.13
2023-02-11T00:20:15.112Z,726.17
2023-02-11T00:22:41.697Z,726.08
2023-02-11T00:25:08.471Z,723.00
2023-02-11T00:27:37.148Z,724.67
2023-02-11T00:30:05.362Z,722.95
2023-02-11T00:32:32.002Z,714.15
2023-02-11T00:34:58.570Z,715.85
2023-02-11T00:37:25.168Z,714.85
2023-02-11T00:39:51.822Z,718.00
2023-02-11T00:42:18.441Z,715.30
2023-02-11T00:44:45.077Z,714.55
2023-02-11T00:47:11.640Z,713.77
2023-02-11T00:49:40.299Z,721.50
2023-02-11T00:52:07.270Z,721.95
2023-02-11T00:54:34.673Z,721.15
2023-02-11T00:57:01.251Z,719.92
2023-02-11T00:59:27.997Z,717.83
2023-02-11T01:01:54.723Z,720.80
2023-02-11T01:04:21.463Z,721.15
2023-02-11T01:06:51.403Z,718.72
2023-02-11T01:09:18.141Z,723.70
2023-02-11T01:11:44.720Z,723.35
2023-02-11T01:14:11.553Z,699.17
2023-02-11T01:16:38.325Z,646.80
2023-02-11T01:19:05.240Z,642.30
2023-02-11T01:21:31.917Z,645.60
2023-02-11T01:23:58.491Z,633.25
2023-02-11T01:26:25.054Z,634.07
2023-02-11T01:28:51.607Z,634.60
2023-02-11T01:31:18.270Z,633.08
2023-02-11T01:33:44.883Z,628.37
2023-02-11T01:36:12.003Z,628.00
2023-02-11T01:38:40.828Z,620.17
2023-02-11T01:41:09.811Z,624.20
2023-02-11T01:43:42.260Z,624.90
2023-02-11T01:46:14.622Z,627.42
2023-02-11T01:48:47.642Z,631.97
2023-02-11T01:51:21.771Z,625.47
2023-02-11T01:54:07.376Z,624.35
2023-02-11T01:57:06.534Z,626.95
2023-02-11T01:59:39.906Z,630.33
2023-02-11T02:02:11.595Z,625.80
2023-02-11T02:04:57.873Z,622.72
2023-02-11T02:07:40.874Z,621.70
2023-02-11T02:10:12.105Z,625.67
2023-02-11T02:12:38.793Z,626.63
2023-02-11T02:15:24.515Z,623.97
2023-02-11T02:17:57.487Z,625.03
2023-02-11T02:21:04.840Z,623.00
2023-02-11T02:24:28.858Z,625.78
2023-02-11T02:27:25.729Z,624.22
2023-02-11T02:30:00.928Z,629.83
2023-02-11T02:32:45.763Z,628.17
2023-02-11T02:35:25.750Z,628.85
2023-02-11T02:38:08.594Z,630.13
2023-02-11T02:40:41.850Z,630.50
2023-02-11T02:43:10.030Z,629.08
2023-02-11T02:45:36.629Z,630.40
2023-02-11T02:48:03.274Z,629.15
2023-02-11T02:50:33.989Z,631.67
2023-02-11T02:53:24.196Z,624.55
2023-02-11T02:56:18.733Z,627.10
2023-02-11T02:59:04.428Z,633.00
2023-02-11T03:01:59.162Z,630.78
2023-02-11T03:05:04.761Z,630.00
2023-02-11T03:07:35.338Z,626.38
2023-02-11T03:10:12.474Z,626.67
2023-02-11T03:12:40.222Z,629.75
2023-02-11T03:15:07.354Z,627.58
2023-02-11T03:17:35.207Z,630.88
2023-02-11T03:20:04.276Z,630.78
2023-02-11T03:22:35.411Z,622.92
2023-02-11T03:25:02.786Z,625.03
2023-02-11T03:27:47.127Z,626.40
2023-02-11T03:30:18.170Z,628.22
2023-02-11T03:32:53.970Z,632.67
2023-02-11T03:35:29.259Z,625.10
2023-02-11T03:37:58.489Z,624.78
2023-02-11T03:40:27.432Z,633.95
2023-02-11T03:43:03.019Z,625.08
2023-02-11T03:45:30.313Z,631.38
2023-02-11T03:48:19.990Z,625.83
2023-02-11T03:50:47.510Z,626.43
2023-02-11T03:53:15.126Z,629.95
2023-02-11T03:55:43.144Z,622.45
2023-02-11T03:58:09.813Z,630.85
2023-02-11T04:00:39.557Z,626.33
2023-02-11T04:03:07.026Z,629.72
2023-02-11T04:05:33.840Z,627.53
2023-02-11T04:08:00.560Z,626.60
2023-02-11T04:10:27.147Z,632.95
2023-02-11T04:12:53.802Z,628.72
2023-02-11T04:15:22.960Z,632.75
2023-02-11T04:17:49.599Z,632.53
2023-02-11T04:20:16.167Z,634.42
2023-02-11T04:22:42.697Z,628.03
2023-02-11T04:25:09.564Z,631.00
2023-02-11T04:27:36.541Z,633.70
2023-02-11T04:30:04.018Z,620.15
2023-02-11T04:32:30.558Z,631.50
2023-02-11T04:34:57.209Z,624.08
2023-02-11T04:37:23.767Z,624.42
2023-02-11T04:39:50.294Z,623.10
2023-02-11T04:42:16.870Z,624.65
2023-02-11T04:44:43.460Z,625.13
2023-02-11T04:47:10.289Z,618.28
2023-02-11T04:49:36.905Z,626.58
2023-02-11T04:52:03.452Z,625.03
2023-02-11T04:54:30.111Z,626.83
2023-02-11T04:56:56.669Z,633.65
2023-02-11T04:59:23.806Z,624.20
2023-02-11T05:01:50.508Z,620.70
2023-02-11T05:04:17.370Z,620.53
2023-02-11T05:06:43.995Z,619.93
2023-02-11T05:09:12.526Z,624.05
2023-02-11T05:11:39.502Z,625.03
2023-02-11T05:14:06.730Z,624.83
2023-02-11T05:16:33.404Z,626.40
2023-02-11T05:18:59.975Z,625.88
2023-02-11T05:21:26.578Z,623.17
2023-02-11T05:23:53.093Z,625.28
2023-02-11T05:26:20.237Z,626.80
2023-02-11T05:28:46.821Z,620.05
2023-02-11T05:31:14.873Z,625.17
2023-02-11T05:33:41.668Z,626.88
2023-02-11T05:36:10.363Z,627.65
2023-02-11T05:38:37.598Z,625.22
2023-02-11T05:41:05.256Z,620.38
2023-02-11T05:43:32.221Z,622.42
2023-02-11T05:45:58.807Z,624.60
2023-02-11T05:48:25.436Z,623.50
2023-02-11T05:50:52.162Z,623.80
2023-02-11T05:53:18.724Z,620.03
2023-02-11T05:55:45.335Z,618.42
2023-02-11T05:58:11.932Z,622.80
2023-02-11T06:00:38.598Z,622.40
2023-02-11T06:03:05.303Z,621.78
2023-02-11T06:05:32.241Z,619.67
2023-02-11T06:07:58.956Z,617.97
2023-02-11T06:10:25.783Z,622.38
2023-02-11T06:12:52.396Z,624.15
2023-02-11T06:15:19.005Z,626.40
2023-02-11T06:17:45.524Z,629.40
2023-02-11T06:20:12.127Z,625.30
2023-02-11T06:22:38.683Z,624.35
2023-02-11T06:25:05.553Z,620.25
2023-02-11T06:27:32.214Z,620.10
2023-02-11T06:29:58.866Z,623.83
2023-02-11T06:32:43.427Z,628.63
2023-02-11T06:35:12.521Z,624.88
2023-02-11T06:37:39.812Z,624.17
2023-02-11T06:40:06.941Z,623.23
2023-02-11T06:42:34.568Z,625.93
2023-02-11T06:45:01.256Z,627.42
2023-02-11T06:47:27.801Z,623.78
2023-02-11T06:49:54.569Z,629.42
2023-02-11T06:52:21.116Z,625.42
2023-02-11T06:54:47.706Z,625.57
2023-02-11T06:57:14.304Z,625.65
2023-02-11T06:59:41.169Z,629.60
2023-02-11T07:02:10.376Z,625.95
2023-02-11T07:04:37.016Z,630.00
2023-02-11T07:07:03.714Z,624.95
2023-02-11T07:09:30.411Z,629.40
2023-02-11T07:11:56.957Z,630.33
2023-02-11T07:14:23.872Z,627.07
2023-02-11T07:16:50.384Z,627.97
2023-02-11T07:19:17.188Z,625.27
2023-02-11T07:21:43.701Z,625.30
2023-02-11T07:24:11.260Z,627.47
2023-02-11T07:26:38.183Z,627.08
2023-02-11T07:29:04.925Z,621.58
2023-02-11T07:31:32.086Z,622.80
2023-02-11T07:34:00.461Z,616.63
2023-02-11T07:36:28.416Z,622.55
2023-02-11T07:38:55.077Z,621.03
2023-02-11T07:41:23.558Z,628.60
2023-02-11T07:43:50.246Z,622.03
2023-02-11T07:46:23.062Z,623.97
2023-02-11T07:48:49.765Z,620.67
2023-02-11T07:51:18.828Z,617.65
2023-02-11T07:53:46.000Z,617.35
2023-02-11T07:56:13.920Z,617.53
2023-02-11T07:58:42.176Z,617.90
2023-02-11T08:01:18.618Z,613.92
2023-02-11T08:03:52.711Z,658.63
2023-02-11T08:06:21.423Z,728.05
2023-02-11T08:08:48.958Z,735.80
2023-02-11T08:11:21.323Z,735.38
2023-02-11T08:13:48.252Z,736.47
2023-02-11T08:16:35.288Z,730.80
2023-02-11T08:19:04.577Z,732.20
2023-02-11T08:21:31.097Z,735.15
2023-02-11T08:23:57.711Z,734.67
2023-02-11T08:26:27.734Z,736.80
2023-02-11T08:28:56.027Z,730.88
2023-02-11T08:31:28.624Z,735.92
2023-02-11T08:33:58.173Z,746.85
2023-02-11T08:36:28.509Z,746.30
2023-02-11T08:39:08.630Z,737.77
2023-02-11T08:41:42.979Z,744.08
2023-02-11T08:44:09.686Z,756.20
2023-02-11T08:46:36.270Z,753.45
2023-02-11T08:49:02.963Z,749.15
2023-02-11T08:51:33.045Z,757.03
2023-02-11T08:54:00.105Z,754.20
2023-02-11T08:56:26.826Z,757.38
2023-02-11T08:58:53.583Z,749.95
2023-02-11T09:01:23.257Z,744.78
2023-02-11T09:03:50.165Z,742.22
2023-02-11T09:06:18.634Z,742.80
2023-02-11T09:08:49.345Z,741.60
2023-02-11T09:11:16.952Z,726.53
2023-02-11T09:13:44.029Z,734.10
2023-02-11T09:16:19.306Z,745.97
2023-02-11T09:18:46.338Z,749.78
2023-02-11T09:21:14.733Z,751.95
2023-02-11T09:23:44.913Z,751.70
2023-02-11T09:26:20.439Z,749.75
2023-02-11T09:28:47.506Z,752.80
2023-02-11T09:31:16.935Z,753.28
2023-02-11T09:33:48.425Z,757.65
2023-02-11T09:36:20.504Z,751.33
2023-02-11T09:38:48.951Z,751.83
2023-02-11T09:41:24.681Z,745.55
2023-02-11T09:43:56.894Z,741.25
2023-02-11T09:46:25.267Z,746.80
2023-02-11T09:48:53.829Z,744.33
2023-02-11T09:51:41.036Z,744.75
2023-02-11T09:54:26.018Z,732.20
2023-02-11T09:56:52.586Z,719.10
2023-02-11T09:59:20.202Z,717.60
2023-02-11T10:01:50.983Z,732.85
2023-02-11T10:04:55.548Z,737.97
2023-02-11T10:07:48.599Z,722.42
2023-02-11T10:10:31.882Z,724.30
2023-02-11T10:12:58.319Z,726.65
2023-02-11T10:15:33.434Z,725.97
2023-02-11T10:18:02.786Z,729.80
2023-02-11T10:20:48.869Z,729.55
2023-02-11T10:23:29.729Z,727.03
2023-02-11T10:25:57.649Z,732.33
2023-02-11T10:28:30.999Z,727.20
2023-02-11T10:31:00.774Z,726.30
2023-02-11T10:33:59.518Z,722.03
2023-02-11T10:36:31.546Z,727.42
2023-02-11T10:39:00.216Z,718.58
2023-02-11T10:41:32.566Z,708.28
2023-02-11T10:44:00.784Z,710.60
2023-02-11T10:46:32.216Z,708.20
2023-02-11T10:48:58.983Z,728.42
2023-02-11T10:51:37.987Z,744.75
2023-02-11T10:54:04.470Z,744.33
2023-02-11T10:56:38.489Z,748.60
2023-02-11T10:59:07.733Z,756.97
2023-02-11T11:01:40.192Z,753.83
2023-02-11T11:04:06.891Z,754.88
2023-02-11T11:06:34.634Z,754.63
2023-02-11T11:09:02.051Z,745.78
2023-02-11T11:11:28.753Z,736.03
2023-02-11T11:13:59.081Z,733.45
2023-02-11T11:16:32.203Z,721.78
2023-02-11T11:19:07.957Z,725.47
2023-02-11T11:21:44.980Z,744.05
2023-02-11T11:24:29.436Z,741.78
2023-02-11T11:27:01.880Z,743.90
2023-02-11T11:29:40.166Z,758.30
2023-02-11T11:32:13.359Z,748.15
2023-02-11T11:34:45.100Z,765.40
2023-02-11T11:37:29.316Z,757.58
2023-02-11T11:40:01.180Z,756.10
2023-02-11T11:42:33.805Z,763.00
2023-02-11T11:45:23.152Z,763.30
2023-02-11T11:47:56.438Z,763.93
2023-02-11T11:50:42.961Z,766.72
2023-02-11T11:53:15.683Z,760.00
2023-02-11T11:55:49.137Z,757.25
2023-02-11T11:58:18.424Z,760.93
2023-02-11T12:01:00.144Z,764.63
2023-02-11T12:03:45.257Z,757.30
2023-02-11T12:06:24.916Z,760.40
2023-02-11T12:09:12.286Z,761.42
2023-02-11T12:12:20.962Z,760.45
2023-02-11T12:15:11.969Z,751.53
2023-02-11T12:18:15.443Z,617.85
2023-02-11T12:21:07.235Z,750.05
2023-02-11T12:23:55.641Z,748.85
2023-02-11T12:26:37.597Z,750.25
2023-02-11T12:29:27.119Z,754.97
2023-02-11T12:34:49.340Z,692.10
2023-02-11T12:37:23.865Z,778.05
2023-02-11T12:39:56.345Z,774.47
2023-02-11T12:42:51.602Z,773.38
2023-02-11T12:45:38.313Z,773.13
2023-02-11T12:48:27.022Z,785.25
2023-02-11T12:50:56.823Z,787.33
2023-02-11T12:53:44.649Z,792.60
2023-02-11T12:56:25.082Z,789.78
2023-02-11T12:58:53.124Z,789.70
2023-02-11T13:01:26.719Z,790.72
2023-02-11T13:03:57.406Z,784.55
2023-02-11T13:06:35.810Z,787.43
2023-02-11T13:09:04.844Z,792.15
2023-02-11T13:11:44.612Z,791.43
2023-02-11T13:14:21.893Z,794.13
2023-02-11T13:16:50.093Z,793.63
2023-02-11T13:19:35.957Z,794.05
2023-02-11T13:22:04.838Z,786.17
2023-02-11T13:24:49.304Z,794.83
2023-02-11T13:27:29.838Z,786.40
2023-02-11T13:30:22.065Z,786.57
2023-02-11T13:32:55.531Z,792.53
2023-02-11T13:35:33.926Z,797.30
2023-02-11T13:38:02.430Z,797.97
2023-02-11T13:40:33.612Z,806.58
2023-02-11T13:43:01.743Z,811.35
2023-02-11T13:45:43.541Z,812.38
2023-02-11T13:48:25.239Z,815.90
2023-02-11T13:50:58.280Z,820.10
2023-02-11T13:53:25.048Z,820.67
2023-02-11T13:55:53.908Z,822.50
2023-02-11T13:58:29.548Z,813.85
2023-02-11T14:00:56.168Z,823.55
2023-02-11T14:03:43.569Z,821.67
2023-02-11T14:06:28.969Z,814.30
2023-02-11T14:09:08.864Z,801.88
2023-02-11T14:11:41.745Z,812.58
2023-02-11T14:14:08.214Z,813.55
2023-02-11T14:16:38.382Z,821.42
2023-02-11T14:19:06.394Z,819.83
2023-02-11T14:21:38.757Z,823.78
2023-02-11T14:24:05.451Z,827.78
2023-02-11T14:26:47.579Z,828.80
2023-02-11T14:29:28.241Z,827.10
2023-02-11T14:32:06.032Z,831.70
2023-02-11T14:34:47.949Z,835.55
2023-02-11T14:37:33.257Z,835.55
2023-02-11T14:40:29.737Z,841.88
2023-02-11T14:42:57.861Z,833.65
2023-02-11T14:45:27.469Z,841.53
2023-02-11T14:48:08.403Z,833.15
2023-02-11T14:51:11.394Z,837.97
2023-02-11T14:53:42.654Z,843.28
2023-02-11T14:56:26.300Z,841.15
2023-02-11T14:58:54.925Z,840.78
2023-02-11T15:01:26.961Z,842.50
2023-02-11T15:03:56.445Z,845.80
2023-02-11T15:06:31.955Z,844.03
2023-02-11T15:09:01.420Z,841.38
2023-02-11T15:11:31.628Z,846.72
2023-02-11T15:14:02.015Z,838.67
2023-02-11T15:16:29.572Z,850.97
2023-02-11T15:18:59.258Z,840.97
2023-02-11T15:21:28.683Z,839.50
2023-02-11T15:24:19.909Z,842.90
2023-02-11T15:26:56.358Z,840.33
2023-02-11T15:29:27.880Z,843.65
2023-02-11T15:32:13.658Z,844.92
2023-02-11T15:34:40.732Z,847.75
2023-02-11T15:37:07.446Z,842.33
2023-02-11T15:39:40.449Z,839.28
2023-02-11T15:42:22.136Z,841.50
2023-02-11T15:44:56.275Z,832.08
2023-02-11T15:47:29.657Z,833.97
2023-02-11T15:49:56.294Z,833.15
2023-02-11T15:52:25.540Z,834.47
2023-02-11T15:54:52.758Z,838.53
2023-02-11T15:57:20.172Z,833.37
2023-02-11T15:59:49.114Z,841.55
2023-02-11T16:02:26.998Z,842.45
2023-02-11T16:04:55.651Z,844.00
2023-02-11T16:07:47.492Z,838.70
2023-02-11T16:10:30.415Z,840.45
2023-02-11T16:13:18.219Z,841.03
2023-02-11T16:15:57.807Z,830.38
2023-02-11T16:18:36.719Z,832.13
2023-02-11T16:21:05.637Z,838.73
2023-02-11T16:23:35.388Z,836.47
2023-02-11T16:26:12.219Z,840.50
2023-02-11T16:28:39.580Z,842.00
2023-02-11T16:31:06.591Z,851.25
2023-02-11T16:33:33.520Z,847.90
2023-02-11T16:36:02.185Z,873.55
2023-02-11T16:38:29.471Z,806.57
2023-02-11T16:40:56.314Z,853.42
2023-02-11T16:43:22.837Z,843.88
2023-02-11T16:45:49.769Z,842.83
2023-02-11T16:48:19.205Z,836.40
2023-02-11T16:50:48.940Z,839.80
2023-02-11T16:53:22.486Z,840.38
2023-02-11T16:55:50.002Z,838.92
2023-02-11T16:58:16.736Z,831.15
2023-02-11T17:00:44.844Z,837.38
2023-02-11T17:03:17.427Z,832.00
2023-02-11T17:05:55.073Z,828.95
2023-02-11T17:08:24.730Z,828.17
2023-02-11T17:10:51.576Z,828.83
2023-02-11T17:13:18.323Z,833.83
2023-02-11T17:15:44.962Z,828.92
2023-02-11T17:18:14.736Z,828.93
2023-02-11T17:20:41.578Z,834.42
2023-02-11T17:23:08.267Z,830.28
2023-02-11T17:25:37.218Z,832.95
2023-02-11T17:28:08.050Z,833.10
2023-02-11T17:30:35.389Z,839.28
2023-02-11T17:33:01.930Z,831.87
2023-02-11T17:35:28.471Z,832.30
2023-02-11T17:37:55.092Z,821.70
2023-02-11T17:40:21.773Z,821.23
2023-02-11T17:42:48.883Z,826.20
2023-02-11T17:45:15.414Z,822.65
2023-02-11T17:47:42.027Z,822.10
2023-02-11T17:50:08.972Z,818.37
2023-02-11T17:52:36.670Z,813.63
2023-02-11T17:55:03.897Z,824.70
2023-02-11T17:57:30.477Z,827.67
2023-02-11T17:59:57.273Z,826.83
2023-02-11T18:02:23.838Z,825.53
2023-02-11T18:04:52.185Z,826.00
2023-02-11T18:07:19.940Z,825.10
2023-02-11T18:09:46.551Z,823.75
2023-02-11T18:12:13.162Z,828.17
2023-02-11T18:14:40.693Z,826.27
2023-02-11T18:17:07.592Z,814.33
2023-02-11T18:19:36.478Z,826.72
2023-02-11T18:22:04.339Z,827.35
2023-02-11T18:24:31.092Z,827.78
2023-02-11T18:26:58.139Z,837.23
2023-02-11T18:29:25.008Z,828.95
2023-02-11T18:31:55.177Z,825.03
2023-02-11T18:34:21.805Z,831.25
2023-02-11T18:36:49.000Z,832.08
2023-02-11T18:39:16.520Z,829.40
2023-02-11T18:41:43.581Z,829.05
2023-02-11T18:44:12.002Z,819.30
2023-02-11T18:46:38.665Z,825.30
2023-02-11T18:49:05.223Z,829.67
2023-02-11T18:51:32.373Z,828.20
2023-02-11T18:53:59.866Z,831.90
2023-02-11T18:56:28.028Z,829.10
2023-02-11T18:58:56.185Z,825.95
2023-02-11T19:01:27.458Z,827.15
2023-02-11T19:03:55.548Z,829.97
2023-02-11T19:06:26.961Z,830.00
2023-02-11T19:08:56.344Z,823.50
2023-02-11T19:11:42.927Z,819.63
2023-02-11T19:14:10.413Z,831.55
2023-02-11T19:16:38.010Z,828.65
2023-02-11T19:19:05.177Z,830.37
2023-02-11T19:21:32.698Z,829.45
2023-02-11T19:24:00.163Z,832.97
2023-02-11T19:26:27.380Z,831.15
2023-02-11T19:28:54.129Z,832.95
2023-02-11T19:31:21.103Z,834.58
2023-02-11T19:33:47.776Z,832.47
2023-02-11T19:36:17.169Z,828.33
2023-02-11T19:38:44.638Z,826.67
2023-02-11T19:41:11.852Z,834.10
2023-02-11T19:43:41.912Z,826.58
2023-02-11T19:46:08.936Z,830.13
2023-02-11T19:48:35.545Z,831.95
2023-02-11T19:51:12.060Z,830.22
2023-02-11T19:53:39.592Z,830.22
2023-02-11T19:56:07.714Z,823.93
2023-02-11T19:58:38.082Z,825.50
2023-02-11T20:01:13.168Z,827.28
2023-02-11T20:03:42.514Z,824.00
2023-02-11T20:06:13.556Z,824.10
2023-02-11T20:08:40.836Z,819.65
2023-02-11T20:11:15.785Z,819.75
2023-02-11T20:13:42.705Z,824.47
2023-02-11T20:16:14.221Z,820.85
2023-02-11T20:18:41.034Z,823.17
2023-02-11T20:21:17.053Z,811.92
2023-02-11T20:23:46.437Z,820.45
2023-02-11T20:26:18.384Z,821.03
2023-02-11T20:28:47.291Z,820.47
2023-02-11T20:31:15.137Z,828.40
2023-02-11T20:33:42.196Z,811.67
2023-02-11T20:36:11.383Z,823.90
2023-02-11T20:38:38.228Z,819.28
2023-02-11T20:41:18.517Z,817.07
2023-02-11T20:43:47.111Z,819.88
2023-02-11T20:46:15.719Z,822.38
2023-02-11T20:48:42.716Z,822.17
2023-02-11T20:51:14.670Z,825.08
2023-02-11T20:53:48.782Z,819.67
2023-02-11T20:56:16.233Z,821.70
2023-02-11T20:58:42.836Z,820.67
2023-02-11T21:01:13.890Z,822.92
2023-02-11T21:03:43.763Z,824.20
2023-02-11T21:06:13.469Z,815.13
2023-02-11T21:08:40.018Z,818.50
2023-02-11T21:15:30.482Z,814.47
2023-02-11T21:17:57.059Z,816.43
2023-02-11T21:20:23.576Z,815.17
2023-02-11T21:22:50.202Z,817.53
2023-02-11T21:25:16.729Z,816.03
2023-02-11T21:27:43.328Z,815.53
2023-02-11T21:30:11.344Z,813.15
2023-02-11T21:32:37.915Z,814.53
2023-02-11T21:35:04.583Z,819.70
2023-02-11T21:37:31.190Z,818.10
2023-02-11T21:39:57.875Z,814.22
2023-02-11T21:42:24.560Z,808.60
2023-02-11T21:44:51.264Z,810.70
2023-02-11T21:47:17.831Z,812.87
2023-02-11T21:49:44.576Z,809.58
2023-02-11T21:52:11.161Z,810.88
2023-02-11T21:54:37.715Z,812.88
2023-02-11T21:57:04.295Z,813.45
2023-02-11T21:59:32.420Z,817.93
2023-02-11T22:01:58.973Z,810.10
2023-02-11T22:04:26.365Z,810.55
2023-02-11T22:06:53.097Z,812.42
2023-02-11T22:09:19.628Z,807.67
2023-02-11T22:11:46.338Z,807.43
2023-02-11T22:14:12.932Z,803.47
2023-02-11T22:16:39.902Z,804.77
2023-02-11T22:19:07.407Z,798.97
2023-02-11T22:21:34.024Z,799.93
2023-02-11T22:24:00.631Z,792.65
2023-02-11T22:26:27.843Z,794.30
2023-02-11T22:28:55.044Z,799.13
2023-02-11T22:31:28.801Z,792.70
2023-02-11T22:33:56.078Z,797.92
2023-02-11T22:36:31.072Z,792.63
2023-02-11T22:39:01.404Z,798.03
2023-02-11T22:41:27.994Z,791.90
2023-02-11T22:43:54.508Z,792.80
2023-02-11T22:46:21.294Z,801.72
2023-02-11T22:48:48.555Z,801.38
2023-02-11T22:51:17.977Z,793.15
2023-02-11T22:53:44.603Z,801.60
2023-02-11T22:56:15.361Z,793.63
2023-02-11T22:58:42.668Z,796.43
2023-02-11T23:01:09.246Z,798.25
2023-02-11T23:03:36.168Z,799.00
2023-02-11T23:06:03.080Z,802.42
2023-02-11T23:08:30.881Z,799.30
2023-02-11T23:11:05.649Z,804.55
2023-02-11T23:13:34.282Z,802.28
2023-02-11T23:16:03.456Z,798.60
2023-02-11T23:18:30.064Z,796.60
2023-02-11T23:20:56.576Z,795.80
2023-02-11T23:23:23.093Z,797.83
2023-02-11T23:25:49.866Z,794.87
2023-02-11T23:28:16.444Z,792.28
2023-02-11T23:30:43.069Z,792.20
2023-02-11T23:33:09.542Z,794.23
2023-02-11T23:35:36.367Z,798.97
2023-02-11T23:38:02.861Z,790.88
2023-02-11T23:40:29.390Z,794.33
2023-02-11T23:42:55.901Z,790.70
2023-02-11T23:45:22.715Z,795.25
2023-02-11T23:47:49.881Z,799.97
2023-02-11T23:50:16.613Z,785.85
2023-02-11T23:52:51.758Z,799.90
2023-02-11T23:55:18.229Z,797.00
2023-02-11T23:57:44.798Z,801.63
